sensor_id;sensor_type;location;lat;lon;timestamp;P1;durP1;ratioP1;P2;durP2;ratioP2
6280;SDS011;3173;48.204;11.612;2022-08-26T00:01:12;17.93;;;11.67;;
6280;SDS011;3173;48.204;11.612;2022-08-26T00:03:39;19.13;;;11.97;;
6280;SDS011;3173;48.204;11.612;2022-08-26T00:06:05;16.60;;;11.23;;
6280;SDS011;3173;48.204;11.612;2022-08-26T00:08:31;24.50;;;11.43;;
6280;SDS011;3173;48.204;11.612;2022-08-26T00:10:57;22.30;;;10.87;;
6280;SDS011;3173;48.204;11.612;2022-08-26T00:13:23;21.83;;;11.87;;
6280;SDS011;3173;48.204;11.612;2022-08-26T00:15:50;22.93;;;11.70;;
6280;SDS011;3173;48.204;11.612;2022-08-26T00:18:16;15.93;;;11.17;;
6280;SDS011;3173;48.204;11.612;2022-08-26T00:20:43;21.00;;;13.47;;
6280;SDS011;3173;48.204;11.612;2022-08-26T00:23:09;20.00;;;12.00;;
6280;SDS011;3173;48.204;11.612;2022-08-26T00:25:35;20.40;;;12.40;;
6280;SDS011;3173;48.204;11.612;2022-08-26T00:28:02;20.20;;;13.00;;
6280;SDS011;3173;48.204;11.612;2022-08-26T00:30:28;20.07;;;12.53;;
6280;SDS011;3173;48.204;11.612;2022-08-26T00:32:55;18.83;;;11.60;;
6280;SDS011;3173;48.204;11.612;2022-08-26T00:35:21;18.83;;;13.67;;
6280;SDS011;3173;48.204;11.612;2022-08-26T00:37:47;16.77;;;11.70;;
6280;SDS011;3173;48.204;11.612;2022-08-26T00:40:16;35.87;;;14.23;;
6280;SDS011;3173;48.204;11.612;2022-08-26T00:42:42;18.80;;;12.03;;
6280;SDS011;3173;48.204;11.612;2022-08-26T00:45:08;19.80;;;12.40;;
6280;SDS011;3173;48.204;11.612;2022-08-26T00:47:39;20.13;;;11.50;;
6280;SDS011;3173;48.204;11.612;2022-08-26T00:50:10;24.63;;;12.90;;
6280;SDS011;3173;48.204;11.612;2022-08-26T00:52:36;19.27;;;11.53;;
6280;SDS011;3173;48.204;11.612;2022-08-26T00:55:05;19.00;;;12.57;;
6280;SDS011;3173;48.204;11.612;2022-08-26T00:57:34;21.30;;;12.03;;
6280;SDS011;3173;48.204;11.612;2022-08-26T01:00:00;18.10;;;12.87;;
6280;SDS011;3173;48.204;11.612;2022-08-26T01:02:27;21.63;;;13.27;;
6280;SDS011;3173;48.204;11.612;2022-08-26T01:04:54;21.07;;;13.93;;
6280;SDS011;3173;48.204;11.612;2022-08-26T01:07:20;18.07;;;12.30;;
6280;SDS011;3173;48.204;11.612;2022-08-26T01:09:46;18.70;;;12.57;;
6280;SDS011;3173;48.204;11.612;2022-08-26T01:12:12;20.23;;;11.57;;
6280;SDS011;3173;48.204;11.612;2022-08-26T01:14:39;17.97;;;12.83;;
6280;SDS011;3173;48.204;11.612;2022-08-26T01:17:11;18.97;;;11.83;;
6280;SDS011;3173;48.204;11.612;2022-08-26T01:19:41;20.30;;;12.90;;
6280;SDS011;3173;48.204;11.612;2022-08-26T01:22:09;21.83;;;11.40;;
6280;SDS011;3173;48.204;11.612;2022-08-26T01:24:36;19.63;;;14.40;;
6280;SDS011;3173;48.204;11.612;2022-08-26T01:27:03;22.77;;;12.50;;
6280;SDS011;3173;48.204;11.612;2022-08-26T01:29:31;17.40;;;11.33;;
6280;SDS011;3173;48.204;11.612;2022-08-26T01:31:58;21.30;;;11.90;;
6280;SDS011;3173;48.204;11.612;2022-08-26T01:34:31;21.97;;;12.87;;
6280;SDS011;3173;48.204;11.612;2022-08-26T01:37:05;15.10;;;12.10;;
6280;SDS011;3173;48.204;11.612;2022-08-26T01:39:32;19.43;;;12.43;;
6280;SDS011;3173;48.204;11.612;2022-08-26T01:41:59;17.87;;;12.10;;
6280;SDS011;3173;48.204;11.612;2022-08-26T01:44:26;22.80;;;14.83;;
6280;SDS011;3173;48.204;11.612;2022-08-26T01:46:53;19.10;;;14.30;;
6280;SDS011;3173;48.204;11.612;2022-08-26T01:49:19;17.13;;;12.73;;
6280;SDS011;3173;48.204;11.612;2022-08-26T01:51:46;18.33;;;13.07;;
6280;SDS011;3173;48.204;11.612;2022-08-26T01:54:15;22.00;;;12.33;;
6280;SDS011;3173;48.204;11.612;2022-08-26T01:56:41;20.10;;;12.57;;
6280;SDS011;3173;48.204;11.612;2022-08-26T01:59:07;20.13;;;13.37;;
6280;SDS011;3173;48.204;11.612;2022-08-26T02:01:34;17.53;;;13.17;;
6280;SDS011;3173;48.204;11.612;2022-08-26T02:04:07;21.87;;;13.73;;
6280;SDS011;3173;48.204;11.612;2022-08-26T02:06:36;20.80;;;13.63;;
6280;SDS011;3173;48.204;11.612;2022-08-26T02:09:02;25.33;;;14.43;;
6280;SDS011;3173;48.204;11.612;2022-08-26T02:11:29;24.37;;;13.40;;
6280;SDS011;3173;48.204;11.612;2022-08-26T02:14:03;20.70;;;12.43;;
6280;SDS011;3173;48.204;11.612;2022-08-26T02:16:40;17.00;;;13.13;;
6280;SDS011;3173;48.204;11.612;2022-08-26T02:19:13;20.30;;;12.70;;
6280;SDS011;3173;48.204;11.612;2022-08-26T02:21:39;21.87;;;14.80;;
6280;SDS011;3173;48.204;11.612;2022-08-26T02:24:13;22.70;;;14.90;;
6280;SDS011;3173;48.204;11.612;2022-08-26T02:26:39;19.93;;;13.67;;
6280;SDS011;3173;48.204;11.612;2022-08-26T02:29:09;19.30;;;14.03;;
6280;SDS011;3173;48.204;11.612;2022-08-26T02:31:36;17.50;;;12.70;;
6280;SDS011;3173;48.204;11.612;2022-08-26T02:34:06;18.37;;;13.60;;
6280;SDS011;3173;48.204;11.612;2022-08-26T02:36:32;20.17;;;14.20;;
6280;SDS011;3173;48.204;11.612;2022-08-26T02:38:58;21.67;;;14.20;;
6280;SDS011;3173;48.204;11.612;2022-08-26T02:41:24;21.40;;;14.30;;
6280;SDS011;3173;48.204;11.612;2022-08-26T02:43:50;23.57;;;14.40;;
6280;SDS011;3173;48.204;11.612;2022-08-26T02:46:16;16.87;;;13.73;;
6280;SDS011;3173;48.204;11.612;2022-08-26T02:48:42;19.63;;;14.10;;
6280;SDS011;3173;48.204;11.612;2022-08-26T02:51:08;19.13;;;12.13;;
6280;SDS011;3173;48.204;11.612;2022-08-26T02:53:35;24.40;;;13.93;;
6280;SDS011;3173;48.204;11.612;2022-08-26T02:56:01;19.97;;;13.33;;
6280;SDS011;3173;48.204;11.612;2022-08-26T02:58:27;21.13;;;14.47;;
6280;SDS011;3173;48.204;11.612;2022-08-26T03:00:53;23.37;;;13.23;;
6280;SDS011;3173;48.204;11.612;2022-08-26T03:03:19;26.20;;;13.30;;
6280;SDS011;3173;48.204;11.612;2022-08-26T03:05:46;26.60;;;14.13;;
6280;SDS011;3173;48.204;11.612;2022-08-26T03:08:12;20.50;;;14.00;;
6280;SDS011;3173;48.204;11.612;2022-08-26T03:10:41;24.40;;;14.43;;
6280;SDS011;3173;48.204;11.612;2022-08-26T03:13:07;27.43;;;14.30;;
6280;SDS011;3173;48.204;11.612;2022-08-26T03:15:33;27.60;;;13.77;;
6280;SDS011;3173;48.204;11.612;2022-08-26T03:17:59;23.53;;;14.37;;
6280;SDS011;3173;48.204;11.612;2022-08-26T03:20:25;20.70;;;13.60;;
6280;SDS011;3173;48.204;11.612;2022-08-26T03:22:51;23.57;;;14.50;;
6280;SDS011;3173;48.204;11.612;2022-08-26T03:25:18;20.47;;;14.20;;
6280;SDS011;3173;48.204;11.612;2022-08-26T03:27:44;18.60;;;14.17;;
6280;SDS011;3173;48.204;11.612;2022-08-26T03:30:11;20.13;;;13.70;;
6280;SDS011;3173;48.204;11.612;2022-08-26T03:32:56;20.80;;;12.90;;
6280;SDS011;3173;48.204;11.612;2022-08-26T03:35:22;24.43;;;13.57;;
6280;SDS011;3173;48.204;11.612;2022-08-26T03:37:49;23.13;;;14.53;;
6280;SDS011;3173;48.204;11.612;2022-08-26T03:40:16;22.07;;;15.03;;
6280;SDS011;3173;48.204;11.612;2022-08-26T03:42:42;25.30;;;15.30;;
6280;SDS011;3173;48.204;11.612;2022-08-26T03:45:08;20.47;;;15.23;;
6280;SDS011;3173;48.204;11.612;2022-08-26T03:47:35;24.67;;;17.17;;
6280;SDS011;3173;48.204;11.612;2022-08-26T03:50:02;24.40;;;15.70;;
6280;SDS011;3173;48.204;11.612;2022-08-26T03:52:29;18.07;;;13.63;;
6280;SDS011;3173;48.204;11.612;2022-08-26T03:54:55;17.83;;;13.63;;
6280;SDS011;3173;48.204;11.612;2022-08-26T03:57:21;23.53;;;15.83;;
6280;SDS011;3173;48.204;11.612;2022-08-26T03:59:47;20.43;;;14.13;;
6280;SDS011;3173;48.204;11.612;2022-08-26T04:02:13;27.97;;;14.90;;
6280;SDS011;3173;48.204;11.612;2022-08-26T04:04:39;23.73;;;15.10;;
6280;SDS011;3173;48.204;11.612;2022-08-26T04:07:05;28.87;;;15.70;;
6280;SDS011;3173;48.204;11.612;2022-08-26T04:09:31;22.93;;;15.37;;
6280;SDS011;3173;48.204;11.612;2022-08-26T04:11:57;22.33;;;15.97;;
6280;SDS011;3173;48.204;11.612;2022-08-26T04:14:24;19.80;;;14.30;;
6280;SDS011;3173;48.204;11.612;2022-08-26T04:16:51;26.60;;;15.43;;
6280;SDS011;3173;48.204;11.612;2022-08-26T04:19:17;25.17;;;15.73;;
6280;SDS011;3173;48.204;11.612;2022-08-26T04:21:44;18.33;;;14.60;;
6280;SDS011;3173;48.204;11.612;2022-08-26T04:24:11;25.93;;;14.53;;
6280;SDS011;3173;48.204;11.612;2022-08-26T04:26:37;23.93;;;14.87;;
6280;SDS011;3173;48.204;11.612;2022-08-26T04:29:05;23.33;;;14.50;;
6280;SDS011;3173;48.204;11.612;2022-08-26T04:31:32;22.37;;;15.40;;
6280;SDS011;3173;48.204;11.612;2022-08-26T04:33:58;21.43;;;14.53;;
6280;SDS011;3173;48.204;11.612;2022-08-26T04:36:24;17.93;;;14.30;;
6280;SDS011;3173;48.204;11.612;2022-08-26T04:38:50;16.63;;;13.40;;
6280;SDS011;3173;48.204;11.612;2022-08-26T04:41:16;21.33;;;14.13;;
6280;SDS011;3173;48.204;11.612;2022-08-26T04:43:43;18.70;;;14.03;;
6280;SDS011;3173;48.204;11.612;2022-08-26T04:46:10;19.27;;;13.73;;
6280;SDS011;3173;48.204;11.612;2022-08-26T04:48:36;20.67;;;15.23;;
6280;SDS011;3173;48.204;11.612;2022-08-26T04:51:02;20.43;;;13.30;;
6280;SDS011;3173;48.204;11.612;2022-08-26T04:53:29;17.23;;;13.20;;
6280;SDS011;3173;48.204;11.612;2022-08-26T04:55:55;20.97;;;13.43;;
6280;SDS011;3173;48.204;11.612;2022-08-26T04:58:21;22.70;;;14.70;;
6280;SDS011;3173;48.204;11.612;2022-08-26T05:00:49;24.60;;;13.30;;
6280;SDS011;3173;48.204;11.612;2022-08-26T05:03:15;24.27;;;14.57;;
6280;SDS011;3173;48.204;11.612;2022-08-26T05:05:42;17.60;;;13.80;;
6280;SDS011;3173;48.204;11.612;2022-08-26T05:08:09;22.03;;;13.67;;
6280;SDS011;3173;48.204;11.612;2022-08-26T05:10:39;27.20;;;14.30;;
6280;SDS011;3173;48.204;11.612;2022-08-26T05:13:05;20.73;;;12.80;;
6280;SDS011;3173;48.204;11.612;2022-08-26T05:15:32;22.53;;;12.30;;
6280;SDS011;3173;48.204;11.612;2022-08-26T05:17:59;19.53;;;12.33;;
6280;SDS011;3173;48.204;11.612;2022-08-26T05:20:25;16.60;;;12.70;;
6280;SDS011;3173;48.204;11.612;2022-08-26T05:22:51;19.07;;;13.13;;
6280;SDS011;3173;48.204;11.612;2022-08-26T05:25:18;19.37;;;12.07;;
6280;SDS011;3173;48.204;11.612;2022-08-26T05:27:43;21.80;;;12.57;;
6280;SDS011;3173;48.204;11.612;2022-08-26T05:30:09;20.57;;;11.87;;
6280;SDS011;3173;48.204;11.612;2022-08-26T05:32:35;17.37;;;12.97;;
6280;SDS011;3173;48.204;11.612;2022-08-26T05:35:01;15.37;;;11.43;;
6280;SDS011;3173;48.204;11.612;2022-08-26T05:37:27;21.93;;;12.50;;
6280;SDS011;3173;48.204;11.612;2022-08-26T05:39:53;17.17;;;12.33;;
6280;SDS011;3173;48.204;11.612;2022-08-26T05:42:19;20.63;;;14.10;;
6280;SDS011;3173;48.204;11.612;2022-08-26T05:44:50;20.33;;;13.60;;
6280;SDS011;3173;48.204;11.612;2022-08-26T05:47:16;22.70;;;14.47;;
6280;SDS011;3173;48.204;11.612;2022-08-26T05:49:42;25.50;;;13.07;;
6280;SDS011;3173;48.204;11.612;2022-08-26T05:52:08;23.67;;;14.13;;
6280;SDS011;3173;48.204;11.612;2022-08-26T05:54:34;22.33;;;14.60;;
6280;SDS011;3173;48.204;11.612;2022-08-26T05:57:03;24.00;;;14.40;;
6280;SDS011;3173;48.204;11.612;2022-08-26T05:59:29;31.80;;;15.87;;
6280;SDS011;3173;48.204;11.612;2022-08-26T06:01:55;27.07;;;16.90;;
6280;SDS011;3173;48.204;11.612;2022-08-26T06:04:21;28.00;;;17.00;;
6280;SDS011;3173;48.204;11.612;2022-08-26T06:06:47;24.73;;;15.63;;
6280;SDS011;3173;48.204;11.612;2022-08-26T06:09:13;19.17;;;15.10;;
6280;SDS011;3173;48.204;11.612;2022-08-26T06:11:39;22.40;;;14.77;;
6280;SDS011;3173;48.204;11.612;2022-08-26T06:14:05;22.40;;;15.83;;
6280;SDS011;3173;48.204;11.612;2022-08-26T06:16:33;26.00;;;16.10;;
6280;SDS011;3173;48.204;11.612;2022-08-26T06:19:02;19.60;;;14.83;;
6280;SDS011;3173;48.204;11.612;2022-08-26T06:21:30;27.50;;;16.20;;
6280;SDS011;3173;48.204;11.612;2022-08-26T06:23:58;23.27;;;15.83;;
6280;SDS011;3173;48.204;11.612;2022-08-26T06:26:46;27.27;;;15.60;;
6280;SDS011;3173;48.204;11.612;2022-08-26T06:29:13;24.93;;;15.10;;
6280;SDS011;3173;48.204;11.612;2022-08-26T06:31:39;19.63;;;14.30;;
6280;SDS011;3173;48.204;11.612;2022-08-26T06:34:05;20.23;;;14.50;;
6280;SDS011;3173;48.204;11.612;2022-08-26T06:36:32;20.90;;;15.27;;
6280;SDS011;3173;48.204;11.612;2022-08-26T06:38:59;20.73;;;15.20;;
6280;SDS011;3173;48.204;11.612;2022-08-26T06:41:26;18.73;;;14.87;;
6280;SDS011;3173;48.204;11.612;2022-08-26T06:43:55;19.40;;;14.20;;
6280;SDS011;3173;48.204;11.612;2022-08-26T06:46:21;22.40;;;14.23;;
6280;SDS011;3173;48.204;11.612;2022-08-26T06:48:47;27.73;;;14.63;;
6280;SDS011;3173;48.204;11.612;2022-08-26T06:51:15;21.67;;;13.50;;
6280;SDS011;3173;48.204;11.612;2022-08-26T06:53:42;23.23;;;14.80;;
6280;SDS011;3173;48.204;11.612;2022-08-26T06:56:13;20.03;;;14.33;;
6280;SDS011;3173;48.204;11.612;2022-08-26T06:58:40;21.23;;;14.20;;
6280;SDS011;3173;48.204;11.612;2022-08-26T07:01:13;23.03;;;14.70;;
6280;SDS011;3173;48.204;11.612;2022-08-26T07:03:39;22.10;;;14.20;;
6280;SDS011;3173;48.204;11.612;2022-08-26T07:06:05;23.10;;;13.50;;
6280;SDS011;3173;48.204;11.612;2022-08-26T07:08:31;26.83;;;13.80;;
6280;SDS011;3173;48.204;11.612;2022-08-26T07:10:57;21.03;;;13.93;;
6280;SDS011;3173;48.204;11.612;2022-08-26T07:13:24;23.47;;;13.17;;
6280;SDS011;3173;48.204;11.612;2022-08-26T07:15:50;30.17;;;13.43;;
6280;SDS011;3173;48.204;11.612;2022-08-26T07:18:16;22.67;;;13.43;;
6280;SDS011;3173;48.204;11.612;2022-08-26T07:20:42;21.23;;;12.80;;
6280;SDS011;3173;48.204;11.612;2022-08-26T07:23:08;20.73;;;11.33;;
6280;SDS011;3173;48.204;11.612;2022-08-26T07:25:38;17.47;;;12.07;;
6280;SDS011;3173;48.204;11.612;2022-08-26T07:28:05;14.83;;;11.30;;
6280;SDS011;3173;48.204;11.612;2022-08-26T07:30:32;16.03;;;11.27;;
6280;SDS011;3173;48.204;11.612;2022-08-26T07:32:58;19.87;;;13.37;;
6280;SDS011;3173;48.204;11.612;2022-08-26T07:35:24;19.90;;;11.33;;
6280;SDS011;3173;48.204;11.612;2022-08-26T07:37:51;19.23;;;11.50;;
6280;SDS011;3173;48.204;11.612;2022-08-26T07:40:17;27.47;;;12.40;;
6280;SDS011;3173;48.204;11.612;2022-08-26T07:42:43;22.00;;;11.30;;
6280;SDS011;3173;48.204;11.612;2022-08-26T07:45:09;20.83;;;12.03;;
6280;SDS011;3173;48.204;11.612;2022-08-26T07:47:35;18.87;;;12.57;;
6280;SDS011;3173;48.204;11.612;2022-08-26T07:50:01;15.33;;;11.07;;
6280;SDS011;3173;48.204;11.612;2022-08-26T07:52:28;16.93;;;11.73;;
6280;SDS011;3173;48.204;11.612;2022-08-26T07:54:54;17.50;;;11.48;;
6280;SDS011;3173;48.204;11.612;2022-08-26T07:57:20;19.57;;;12.57;;
6280;SDS011;3173;48.204;11.612;2022-08-26T07:59:46;17.17;;;12.83;;
6280;SDS011;3173;48.204;11.612;2022-08-26T08:02:12;18.77;;;12.80;;
6280;SDS011;3173;48.204;11.612;2022-08-26T08:04:38;18.17;;;12.90;;
6280;SDS011;3173;48.204;11.612;2022-08-26T08:07:04;16.00;;;12.50;;
6280;SDS011;3173;48.204;11.612;2022-08-26T08:09:30;26.80;;;14.30;;
6280;SDS011;3173;48.204;11.612;2022-08-26T08:11:56;22.27;;;13.40;;
6280;SDS011;3173;48.204;11.612;2022-08-26T08:14:22;20.40;;;12.50;;
6280;SDS011;3173;48.204;11.612;2022-08-26T08:16:48;18.60;;;14.13;;
6280;SDS011;3173;48.204;11.612;2022-08-26T08:19:14;21.37;;;13.13;;
6280;SDS011;3173;48.204;11.612;2022-08-26T08:21:41;20.63;;;11.77;;
6280;SDS011;3173;48.204;11.612;2022-08-26T08:24:07;20.50;;;11.90;;
6280;SDS011;3173;48.204;11.612;2022-08-26T08:26:34;19.60;;;12.20;;
6280;SDS011;3173;48.204;11.612;2022-08-26T08:29:00;21.30;;;11.73;;
6280;SDS011;3173;48.204;11.612;2022-08-26T08:31:27;14.47;;;11.07;;
6280;SDS011;3173;48.204;11.612;2022-08-26T08:33:53;18.70;;;10.63;;
6280;SDS011;3173;48.204;11.612;2022-08-26T08:36:19;22.77;;;10.77;;
6280;SDS011;3173;48.204;11.612;2022-08-26T08:38:46;15.97;;;10.70;;
6280;SDS011;3173;48.204;11.612;2022-08-26T08:43:57;22.47;;;11.07;;
6280;SDS011;3173;48.204;11.612;2022-08-26T08:46:25;18.73;;;11.43;;
6280;SDS011;3173;48.204;11.612;2022-08-26T08:48:51;13.47;;;9.60;;
6280;SDS011;3173;48.204;11.612;2022-08-26T08:51:35;21.50;;;10.97;;
6280;SDS011;3173;48.204;11.612;2022-08-26T08:54:04;21.13;;;10.77;;
6280;SDS011;3173;48.204;11.612;2022-08-26T09:06:38;15.30;;;8.70;;
6280;SDS011;3173;48.204;11.612;2022-08-26T09:09:04;14.33;;;9.70;;
6280;SDS011;3173;48.204;11.612;2022-08-26T09:11:32;15.90;;;9.17;;
6280;SDS011;3173;48.204;11.612;2022-08-26T09:13:59;15.87;;;9.20;;
6280;SDS011;3173;48.204;11.612;2022-08-26T09:19:22;14.63;;;9.10;;
6280;SDS011;3173;48.204;11.612;2022-08-26T09:21:54;16.70;;;10.00;;
6280;SDS011;3173;48.204;11.612;2022-08-26T09:24:21;16.53;;;8.73;;
6280;SDS011;3173;48.204;11.612;2022-08-26T09:26:47;14.37;;;10.43;;
6280;SDS011;3173;48.204;11.612;2022-08-26T09:29:18;12.20;;;9.00;;
6280;SDS011;3173;48.204;11.612;2022-08-26T09:31:44;18.23;;;9.47;;
6280;SDS011;3173;48.204;11.612;2022-08-26T09:36:46;16.23;;;8.37;;
6280;SDS011;3173;48.204;11.612;2022-08-26T09:39:45;17.87;;;8.37;;
6280;SDS011;3173;48.204;11.612;2022-08-26T09:42:20;16.60;;;8.90;;
6280;SDS011;3173;48.204;11.612;2022-08-26T09:44:50;15.10;;;8.60;;
6280;SDS011;3173;48.204;11.612;2022-08-26T09:47:19;16.00;;;8.80;;
6280;SDS011;3173;48.204;11.612;2022-08-26T09:49:49;18.73;;;8.83;;
6280;SDS011;3173;48.204;11.612;2022-08-26T09:52:22;18.80;;;9.13;;
6280;SDS011;3173;48.204;11.612;2022-08-26T09:55:00;14.67;;;8.67;;
6280;SDS011;3173;48.204;11.612;2022-08-26T09:57:27;17.37;;;9.50;;
6280;SDS011;3173;48.204;11.612;2022-08-26T09:59:54;17.20;;;9.70;;
6280;SDS011;3173;48.204;11.612;2022-08-26T10:04:58;17.80;;;8.80;;
6280;SDS011;3173;48.204;11.612;2022-08-26T10:10:04;15.53;;;8.50;;
6280;SDS011;3173;48.204;11.612;2022-08-26T10:12:33;15.60;;;8.60;;
6280;SDS011;3173;48.204;11.612;2022-08-26T10:15:02;16.60;;;8.80;;
6280;SDS011;3173;48.204;11.612;2022-08-26T10:17:35;16.57;;;9.03;;
6280;SDS011;3173;48.204;11.612;2022-08-26T10:25:33;15.70;;;8.70;;
6280;SDS011;3173;48.204;11.612;2022-08-26T10:30:46;13.97;;;9.20;;
6280;SDS011;3173;48.204;11.612;2022-08-26T10:33:14;15.63;;;9.10;;
6280;SDS011;3173;48.204;11.612;2022-08-26T10:35:45;19.80;;;9.30;;
6280;SDS011;3173;48.204;11.612;2022-08-26T10:38:13;14.00;;;8.57;;
6280;SDS011;3173;48.204;11.612;2022-08-26T10:40:47;15.47;;;8.77;;
6280;SDS011;3173;48.204;11.612;2022-08-26T10:43:17;15.13;;;8.53;;
6280;SDS011;3173;48.204;11.612;2022-08-26T10:45:46;16.33;;;9.50;;
6280;SDS011;3173;48.204;11.612;2022-08-26T10:48:34;10.70;;;8.40;;
6280;SDS011;3173;48.204;11.612;2022-08-26T10:51:02;15.77;;;9.10;;
6280;SDS011;3173;48.204;11.612;2022-08-26T10:53:46;19.00;;;8.80;;
6280;SDS011;3173;48.204;11.612;2022-08-26T11:01:24;12.30;;;5.40;;
6280;SDS011;3173;48.204;11.612;2022-08-26T11:04:22;11.23;;;5.77;;
6280;SDS011;3173;48.204;11.612;2022-08-26T11:09:42;10.80;;;5.43;;
6280;SDS011;3173;48.204;11.612;2022-08-26T11:12:09;10.27;;;6.07;;
6280;SDS011;3173;48.204;11.612;2022-08-26T11:14:54;9.57;;;6.03;;
6280;SDS011;3173;48.204;11.612;2022-08-26T11:17:53;12.67;;;6.67;;
6280;SDS011;3173;48.204;11.612;2022-08-26T11:20:06;10.30;;;6.50;;
6280;SDS011;3173;48.204;11.612;2022-08-26T11:22:33;13.20;;;6.63;;
6280;SDS011;3173;48.204;11.612;2022-08-26T11:25:06;13.87;;;6.73;;
6280;SDS011;3173;48.204;11.612;2022-08-26T11:30:04;21.17;;;7.43;;
6280;SDS011;3173;48.204;11.612;2022-08-26T11:35:00;11.43;;;6.83;;
6280;SDS011;3173;48.204;11.612;2022-08-26T11:37:34;13.97;;;7.63;;
6280;SDS011;3173;48.204;11.612;2022-08-26T11:40:01;10.30;;;6.40;;
6280;SDS011;3173;48.204;11.612;2022-08-26T11:42:34;10.43;;;6.10;;
6280;SDS011;3173;48.204;11.612;2022-08-26T11:45:10;10.47;;;6.00;;
6280;SDS011;3173;48.204;11.612;2022-08-26T11:47:37;12.93;;;6.53;;
6280;SDS011;3173;48.204;11.612;2022-08-26T11:52:32;17.47;;;6.10;;
6280;SDS011;3173;48.204;11.612;2022-08-26T11:54:59;14.63;;;5.83;;
6280;SDS011;3173;48.204;11.612;2022-08-26T11:57:25;12.70;;;6.10;;
6280;SDS011;3173;48.204;11.612;2022-08-26T11:59:52;10.23;;;5.90;;
6280;SDS011;3173;48.204;11.612;2022-08-26T12:02:18;11.80;;;6.57;;
6280;SDS011;3173;48.204;11.612;2022-08-26T12:04:46;11.60;;;7.30;;
6280;SDS011;3173;48.204;11.612;2022-08-26T12:07:13;10.93;;;6.80;;
6280;SDS011;3173;48.204;11.612;2022-08-26T12:09:49;9.80;;;6.50;;
6280;SDS011;3173;48.204;11.612;2022-08-26T12:12:24;15.07;;;6.60;;
6280;SDS011;3173;48.204;11.612;2022-08-26T12:17:31;15.03;;;6.20;;
6280;SDS011;3173;48.204;11.612;2022-08-26T12:19:57;16.60;;;6.10;;
6280;SDS011;3173;48.204;11.612;2022-08-26T12:25:03;7.90;;;5.10;;
6280;SDS011;3173;48.204;11.612;2022-08-26T12:27:30;8.97;;;5.13;;
6280;SDS011;3173;48.204;11.612;2022-08-26T12:30:13;9.87;;;5.40;;
6280;SDS011;3173;48.204;11.612;2022-08-26T12:32:43;9.00;;;4.60;;
6280;SDS011;3173;48.204;11.612;2022-08-26T12:35:11;10.33;;;3.87;;
6280;SDS011;3173;48.204;11.612;2022-08-26T12:37:38;12.00;;;4.60;;
6280;SDS011;3173;48.204;11.612;2022-08-26T12:42:50;13.33;;;4.90;;
6280;SDS011;3173;48.204;11.612;2022-08-26T12:45:26;13.50;;;4.50;;
6280;SDS011;3173;48.204;11.612;2022-08-26T12:47:53;8.07;;;4.50;;
6280;SDS011;3173;48.204;11.612;2022-08-26T12:50:22;7.50;;;4.50;;
6280;SDS011;3173;48.204;11.612;2022-08-26T12:55:22;6.30;;;4.07;;
6280;SDS011;3173;48.204;11.612;2022-08-26T12:57:48;8.17;;;4.30;;
6280;SDS011;3173;48.204;11.612;2022-08-26T13:02:55;9.30;;;4.10;;
6280;SDS011;3173;48.204;11.612;2022-08-26T13:05:23;7.60;;;4.50;;
6280;SDS011;3173;48.204;11.612;2022-08-26T13:10:35;10.40;;;4.70;;
6280;SDS011;3173;48.204;11.612;2022-08-26T13:13:01;10.70;;;4.30;;
6280;SDS011;3173;48.204;11.612;2022-08-26T13:15:27;16.03;;;4.60;;
6280;SDS011;3173;48.204;11.612;2022-08-26T13:17:53;9.93;;;4.40;;
6280;SDS011;3173;48.204;11.612;2022-08-26T13:20:19;9.20;;;4.93;;
6280;SDS011;3173;48.204;11.612;2022-08-26T13:22:45;9.50;;;4.90;;
6280;SDS011;3173;48.204;11.612;2022-08-26T13:25:12;8.30;;;4.90;;
6280;SDS011;3173;48.204;11.612;2022-08-26T13:27:39;13.33;;;4.40;;
6280;SDS011;3173;48.204;11.612;2022-08-26T13:30:05;7.47;;;4.60;;
6280;SDS011;3173;48.204;11.612;2022-08-26T13:32:31;14.57;;;5.17;;
6280;SDS011;3173;48.204;11.612;2022-08-26T13:34:57;5.70;;;3.87;;
6280;SDS011;3173;48.204;11.612;2022-08-26T13:37:23;8.63;;;4.13;;
6280;SDS011;3173;48.204;11.612;2022-08-26T13:39:51;7.87;;;4.00;;
6280;SDS011;3173;48.204;11.612;2022-08-26T13:42:18;9.23;;;4.20;;
6280;SDS011;3173;48.204;11.612;2022-08-26T13:44:44;10.97;;;4.53;;
6280;SDS011;3173;48.204;11.612;2022-08-26T13:47:14;9.50;;;4.20;;
6280;SDS011;3173;48.204;11.612;2022-08-26T13:49:40;7.43;;;3.60;;
6280;SDS011;3173;48.204;11.612;2022-08-26T13:52:07;6.47;;;3.97;;
6280;SDS011;3173;48.204;11.612;2022-08-26T13:54:33;6.70;;;3.53;;
6280;SDS011;3173;48.204;11.612;2022-08-26T13:57:00;7.40;;;3.43;;
6280;SDS011;3173;48.204;11.612;2022-08-26T13:59:26;6.63;;;3.73;;
6280;SDS011;3173;48.204;11.612;2022-08-26T14:01:52;9.03;;;3.60;;
6280;SDS011;3173;48.204;11.612;2022-08-26T14:04:18;8.70;;;4.10;;
6280;SDS011;3173;48.204;11.612;2022-08-26T14:06:44;8.40;;;4.90;;
6280;SDS011;3173;48.204;11.612;2022-08-26T14:09:10;12.50;;;4.60;;
6280;SDS011;3173;48.204;11.612;2022-08-26T14:11:36;9.07;;;4.43;;
6280;SDS011;3173;48.204;11.612;2022-08-26T14:14:02;10.97;;;4.20;;
6280;SDS011;3173;48.204;11.612;2022-08-26T14:16:28;11.27;;;3.63;;
6280;SDS011;3173;48.204;11.612;2022-08-26T14:18:57;7.63;;;3.20;;
6280;SDS011;3173;48.204;11.612;2022-08-26T14:21:25;8.77;;;3.83;;
6280;SDS011;3173;48.204;11.612;2022-08-26T14:23:52;9.67;;;3.50;;
6280;SDS011;3173;48.204;11.612;2022-08-26T14:26:18;5.53;;;3.30;;
6280;SDS011;3173;48.204;11.612;2022-08-26T14:28:44;9.47;;;4.20;;
6280;SDS011;3173;48.204;11.612;2022-08-26T14:31:10;8.50;;;3.73;;
6280;SDS011;3173;48.204;11.612;2022-08-26T14:33:37;7.47;;;3.23;;
6280;SDS011;3173;48.204;11.612;2022-08-26T14:36:04;5.03;;;3.57;;
6280;SDS011;3173;48.204;11.612;2022-08-26T14:38:48;8.43;;;3.20;;
6280;SDS011;3173;48.204;11.612;2022-08-26T14:41:15;6.80;;;3.30;;
6280;SDS011;3173;48.204;11.612;2022-08-26T14:43:44;9.67;;;3.13;;
6280;SDS011;3173;48.204;11.612;2022-08-26T14:46:12;13.53;;;3.20;;
6280;SDS011;3173;48.204;11.612;2022-08-26T14:48:42;9.00;;;3.40;;
6280;SDS011;3173;48.204;11.612;2022-08-26T14:51:08;10.83;;;3.37;;
6280;SDS011;3173;48.204;11.612;2022-08-26T14:53:34;7.63;;;3.57;;
6280;SDS011;3173;48.204;11.612;2022-08-26T14:56:19;9.10;;;3.20;;
6280;SDS011;3173;48.204;11.612;2022-08-26T14:58:45;7.07;;;3.70;;
6280;SDS011;3173;48.204;11.612;2022-08-26T15:01:11;7.47;;;3.47;;
6280;SDS011;3173;48.204;11.612;2022-08-26T15:03:37;12.13;;;4.30;;
6280;SDS011;3173;48.204;11.612;2022-08-26T15:06:03;8.50;;;4.23;;
6280;SDS011;3173;48.204;11.612;2022-08-26T15:08:30;13.30;;;4.70;;
6280;SDS011;3173;48.204;11.612;2022-08-26T15:11:00;9.43;;;4.20;;
6280;SDS011;3173;48.204;11.612;2022-08-26T15:13:27;12.40;;;5.17;;
6280;SDS011;3173;48.204;11.612;2022-08-26T15:15:53;16.90;;;5.70;;
6280;SDS011;3173;48.204;11.612;2022-08-26T15:18:19;15.40;;;5.70;;
6280;SDS011;3173;48.204;11.612;2022-08-26T15:20:46;12.73;;;5.23;;
6280;SDS011;3173;48.204;11.612;2022-08-26T15:23:11;15.03;;;5.30;;
6280;SDS011;3173;48.204;11.612;2022-08-26T15:25:37;12.73;;;6.00;;
6280;SDS011;3173;48.204;11.612;2022-08-26T15:28:03;11.70;;;6.00;;
6280;SDS011;3173;48.204;11.612;2022-08-26T15:30:30;17.20;;;5.90;;
6280;SDS011;3173;48.204;11.612;2022-08-26T15:38:09;10.30;;;5.40;;
6280;SDS011;3173;48.204;11.612;2022-08-26T15:40:35;12.03;;;5.40;;
6280;SDS011;3173;48.204;11.612;2022-08-26T15:43:01;14.50;;;6.03;;
6280;SDS011;3173;48.204;11.612;2022-08-26T15:45:28;10.93;;;5.90;;
6280;SDS011;3173;48.204;11.612;2022-08-26T15:47:54;10.00;;;5.97;;
6280;SDS011;3173;48.204;11.612;2022-08-26T15:50:20;16.67;;;5.67;;
6280;SDS011;3173;48.204;11.612;2022-08-26T15:52:49;11.47;;;5.90;;